Browns Summit, North Carolina
Current Conditions -  °F | °C
As of 7:54 PM on Tuesday 21 Oct 2014 (Local Time) from KGSO Reporting Station
Broken Clouds Broken Clouds  
Wind Chill: 60°   Ceiling: 8000
Heat Index: 60°   Visibility: 10mi
Dew Point: 39°   Wind: 12mph
Humidity: 46%   Direction: 330°NNW
Pressure: 29.93"   Gusts: 17mph
Location:  36.21°N, 79.71°W
Report Text: KGSO 212354Z 33010G15KT 10SM BKN080 16/04 A2993 RMK AO2 SLP131 T01560039 10222 20156 53023
Loading
Personal Weather Stations






























Interactive Weather Map
Tropical Storm Tracking
New forecast layout! Learn more

10-Day Weather Forecast

Advertisements
Track Severe Weather on mobile